Aérodrome :
LOGIN :

S'inscrire | Disclaimer

   EN    FR    IT 

 










Légende :    VFR   VFR Marginal   IFR   IFR Intensif   IFR Très Intensif
Visi : 
Plafond : 
>= 8 km
>= 3000ft
5 à 8 km
1000 à 3000 ft
1500m à 5 km
500 à 1000 ft
800 à 1500m
200 à 500 ft
< 800m
< 200 ft
Symboles :   Orages  Brouillard  Fortes neiges  Fortes précipitations  Vent > 20 kt
SIGMETs :   Divers  Orages  Givrage  Turbulence  Onde Orograph.  Cendres Volcan.







- Altitude de l'aérodrome : 330 ft
- Code IATA : LVA
- Voir les cartes d'approche


LFOV - Laval-Entrammes

DERNIER METAR :
  • 261530Z AUTO 26008KT 200V300 9999 OVC042 19/13 Q1017

METARs EXPIRÉS :
  • 261500Z AUTO 27007KT 220V310 9999 SCT022 OVC040 18/13 Q1018
  • 261430Z AUTO 26008KT 230V290 9999 BKN030 OVC037 17/12 Q1018
  • 261400Z AUTO 28010KT 9999 SCT022 BKN027 OVC034 17/12 Q1018
  • 261330Z AUTO 26006KT 200V290 9999 SCT021 OVC031 18/13 Q1018
  • 261300Z AUTO 27005KT 230V320 9999 SCT017 OVC031 17/13 Q1018

TAF N/A
Pas de NOTAMs connus pour ce terrain.



MET'MAP, la Météo Aéronautique d'un coup d'oeil ! - Copyright ORBIFLY Décembre 2007 - Disclaimer

ORBIFLY MET'MAP TEAM :

Programmation & Développement : Alexandra Zaïnal
Conception & Développement : Baudouin d'Aumeries
Co-Programmation & Développement : Marc-Olivier Méhu
Soutien technique & logistique : Manuel Goepfert

Contact : metmap@orbifly.com




SOURCES & CREDITS :

   NOAA